sensor_id;sensor_type;location;lat;lon;timestamp;pressure;altitude;pressure_sealevel;temperature;humidity
10060;BME280;5069;49.306;8.636;2023-07-20T00:01:26;100276.00;;;22.05;48.37
10060;BME280;5069;49.306;8.636;2023-07-20T00:04:27;100276.00;;;22.05;48.09
10060;BME280;5069;49.306;8.636;2023-07-20T00:07:29;100276.00;;;22.05;48.13
10060;BME280;5069;49.306;8.636;2023-07-20T00:10:31;100272.53;;;22.25;47.66
10060;BME280;5069;49.306;8.636;2023-07-20T00:13:32;100278.28;;;22.20;47.79
10060;BME280;5069;49.306;8.636;2023-07-20T00:16:34;100279.09;;;22.32;47.86
10060;BME280;5069;49.306;8.636;2023-07-20T00:19:35;100287.03;;;22.22;47.99
10060;BME280;5069;49.306;8.636;2023-07-20T00:22:37;100277.03;;;22.24;47.97
10060;BME280;5069;49.306;8.636;2023-07-20T00:25:38;100280.47;;;22.27;47.83
10060;BME280;5069;49.306;8.636;2023-07-20T00:28:40;100289.13;;;22.19;47.96
10060;BME280;5069;49.306;8.636;2023-07-20T00:31:41;100285.25;;;22.12;48.06
10060;BME280;5069;49.306;8.636;2023-07-20T00:34:45;100286.16;;;22.01;48.42
10060;BME280;5069;49.306;8.636;2023-07-20T00:37:46;100284.44;;;21.89;48.76
10060;BME280;5069;49.306;8.636;2023-07-20T00:40:48;100288.00;;;21.78;49.60
10060;BME280;5069;49.306;8.636;2023-07-20T00:43:52;100286.09;;;21.69;49.43
10060;BME280;5069;49.306;8.636;2023-07-20T00:46:53;100288.28;;;21.75;49.57
10060;BME280;5069;49.306;8.636;2023-07-20T00:49:55;100280.72;;;21.69;49.84
10060;BME280;5069;49.306;8.636;2023-07-20T00:52:57;100285.72;;;21.63;50.20
10060;BME280;5069;49.306;8.636;2023-07-20T00:55:59;100284.41;;;21.57;50.17
10060;BME280;5069;49.306;8.636;2023-07-20T00:59:02;100286.81;;;21.60;50.14
10060;BME280;5069;49.306;8.636;2023-07-20T01:02:04;100289.50;;;21.49;50.97
10060;BME280;5069;49.306;8.636;2023-07-20T01:05:06;100292.56;;;21.44;51.38
10060;BME280;5069;49.306;8.636;2023-07-20T01:08:16;100287.31;;;21.43;51.57
10060;BME280;5069;49.306;8.636;2023-07-20T01:14:39;100299.50;;;21.36;52.15
10060;BME280;5069;49.306;8.636;2023-07-20T01:17:41;100296.13;;;21.34;52.32
10060;BME280;5069;49.306;8.636;2023-07-20T01:20:42;100294.66;;;21.30;52.57
10060;BME280;5069;49.306;8.636;2023-07-20T01:27:25;100294.88;;;21.16;52.87
10060;BME280;5069;49.306;8.636;2023-07-20T01:33:46;100297.03;;;20.99;53.51
10060;BME280;5069;49.306;8.636;2023-07-20T01:36:49;100299.81;;;20.98;53.96
10060;BME280;5069;49.306;8.636;2023-07-20T01:39:52;100287.75;;;20.92;54.90
10060;BME280;5069;49.306;8.636;2023-07-20T01:42:56;100292.38;;;20.90;54.83
10060;BME280;5069;49.306;8.636;2023-07-20T01:45:58;100283.50;;;20.90;54.77
10060;BME280;5069;49.306;8.636;2023-07-20T01:49:01;100287.53;;;20.95;54.99
10060;BME280;5069;49.306;8.636;2023-07-20T01:52:05;100287.28;;;20.98;53.98
10060;BME280;5069;49.306;8.636;2023-07-20T01:55:07;100289.09;;;20.87;54.96
10060;BME280;5069;49.306;8.636;2023-07-20T01:58:09;100290.38;;;20.59;55.40
10060;BME280;5069;49.306;8.636;2023-07-20T02:01:10;100292.91;;;20.49;56.50
10060;BME280;5069;49.306;8.636;2023-07-20T02:04:12;100290.19;;;20.38;56.84
10060;BME280;5069;49.306;8.636;2023-07-20T02:07:14;100295.06;;;20.33;56.80
10060;BME280;5069;49.306;8.636;2023-07-20T02:10:16;100295.78;;;20.22;57.16
10060;BME280;5069;49.306;8.636;2023-07-20T02:13:18;100300.09;;;20.01;58.48
10060;BME280;5069;49.306;8.636;2023-07-20T02:16:19;100289.31;;;19.54;61.29
10060;BME280;5069;49.306;8.636;2023-07-20T02:19:21;100300.16;;;19.52;61.76
10060;BME280;5069;49.306;8.636;2023-07-20T02:22:23;100293.06;;;19.64;61.29
10060;BME280;5069;49.306;8.636;2023-07-20T02:25:25;100294.38;;;19.58;61.90
10060;BME280;5069;49.306;8.636;2023-07-20T02:28:27;100290.03;;;19.68;60.75
10060;BME280;5069;49.306;8.636;2023-07-20T02:31:28;100295.59;;;19.65;61.18
10060;BME280;5069;49.306;8.636;2023-07-20T02:34:30;100297.75;;;19.60;62.15
10060;BME280;5069;49.306;8.636;2023-07-20T02:37:31;100302.94;;;19.51;62.82
10060;BME280;5069;49.306;8.636;2023-07-20T02:40:33;100305.59;;;19.51;63.06
10060;BME280;5069;49.306;8.636;2023-07-20T02:43:34;100302.94;;;19.51;63.08
10060;BME280;5069;49.306;8.636;2023-07-20T02:46:37;100295.66;;;19.53;62.49
10060;BME280;5069;49.306;8.636;2023-07-20T02:49:39;100311.34;;;19.45;63.62
10060;BME280;5069;49.306;8.636;2023-07-20T02:52:41;100311.91;;;19.50;63.84
10060;BME280;5069;49.306;8.636;2023-07-20T02:55:42;100308.91;;;19.54;62.92
10060;BME280;5069;49.306;8.636;2023-07-20T02:58:44;100311.03;;;19.49;64.13
10060;BME280;5069;49.306;8.636;2023-07-20T03:01:47;100307.09;;;19.29;65.03
10060;BME280;5069;49.306;8.636;2023-07-20T03:04:49;100308.72;;;19.19;65.42
10060;BME280;5069;49.306;8.636;2023-07-20T03:07:51;100311.69;;;19.27;63.97
10060;BME280;5069;49.306;8.636;2023-07-20T03:10:52;100313.59;;;19.25;64.76
10060;BME280;5069;49.306;8.636;2023-07-20T03:13:53;100308.06;;;19.28;65.18
10060;BME280;5069;49.306;8.636;2023-07-20T03:16:56;100310.75;;;19.28;64.07
10060;BME280;5069;49.306;8.636;2023-07-20T03:19:58;100311.59;;;19.29;63.81
10060;BME280;5069;49.306;8.636;2023-07-20T03:23:03;100308.72;;;19.19;65.12
10060;BME280;5069;49.306;8.636;2023-07-20T03:26:05;100316.63;;;19.21;65.00
10060;BME280;5069;49.306;8.636;2023-07-20T03:29:09;100307.00;;;19.18;64.90
10060;BME280;5069;49.306;8.636;2023-07-20T03:32:11;100317.91;;;19.15;65.57
10060;BME280;5069;49.306;8.636;2023-07-20T03:35:13;100312.03;;;19.10;66.34
10060;BME280;5069;49.306;8.636;2023-07-20T03:38:17;100319.94;;;19.12;65.29
10060;BME280;5069;49.306;8.636;2023-07-20T03:41:18;100320.28;;;19.07;65.75
10060;BME280;5069;49.306;8.636;2023-07-20T03:44:21;100323.91;;;19.06;65.83
10060;BME280;5069;49.306;8.636;2023-07-20T03:47:23;100335.84;;;18.88;67.41
10060;BME280;5069;49.306;8.636;2023-07-20T03:50:26;100343.53;;;18.80;69.07
10060;BME280;5069;49.306;8.636;2023-07-20T03:53:28;100342.25;;;18.73;68.67
10060;BME280;5069;49.306;8.636;2023-07-20T03:56:29;100333.91;;;18.65;70.18
10060;BME280;5069;49.306;8.636;2023-07-20T03:59:37;100340.03;;;18.52;69.44
10060;BME280;5069;49.306;8.636;2023-07-20T04:02:38;100342.56;;;18.41;70.28
10060;BME280;5069;49.306;8.636;2023-07-20T04:05:40;100347.72;;;18.44;70.36
10060;BME280;5069;49.306;8.636;2023-07-20T04:08:41;100349.38;;;18.45;70.57
10060;BME280;5069;49.306;8.636;2023-07-20T04:11:43;100346.84;;;18.44;72.55
10060;BME280;5069;49.306;8.636;2023-07-20T04:14:44;100351.34;;;18.43;72.46
10060;BME280;5069;49.306;8.636;2023-07-20T04:17:46;100350.91;;;18.49;71.20
10060;BME280;5069;49.306;8.636;2023-07-20T04:20:47;100352.69;;;18.36;73.18
10060;BME280;5069;49.306;8.636;2023-07-20T04:23:49;100357.53;;;18.44;74.23
10060;BME280;5069;49.306;8.636;2023-07-20T04:26:50;100359.66;;;18.51;73.04
10060;BME280;5069;49.306;8.636;2023-07-20T04:29:52;100358.88;;;18.64;71.57
10060;BME280;5069;49.306;8.636;2023-07-20T04:32:54;100349.91;;;18.65;71.46
10060;BME280;5069;49.306;8.636;2023-07-20T04:35:55;100353.34;;;18.67;71.56
10060;BME280;5069;49.306;8.636;2023-07-20T04:39:03;100360.81;;;18.62;71.80
10060;BME280;5069;49.306;8.636;2023-07-20T04:42:17;100352.25;;;18.56;73.21
10060;BME280;5069;49.306;8.636;2023-07-20T04:45:19;100365.09;;;18.77;70.64
10060;BME280;5069;49.306;8.636;2023-07-20T04:48:20;100354.84;;;18.71;72.67
10060;BME280;5069;49.306;8.636;2023-07-20T04:51:25;100365.56;;;18.83;70.87
10060;BME280;5069;49.306;8.636;2023-07-20T04:54:29;100355.72;;;18.84;72.18
10060;BME280;5069;49.306;8.636;2023-07-20T04:57:30;100352.09;;;18.85;72.44
10060;BME280;5069;49.306;8.636;2023-07-20T05:00:33;100347.06;;;18.93;71.75
10060;BME280;5069;49.306;8.636;2023-07-20T05:03:34;100341.66;;;19.07;70.25
10060;BME280;5069;49.306;8.636;2023-07-20T05:06:36;100343.47;;;19.19;71.05
10060;BME280;5069;49.306;8.636;2023-07-20T05:09:40;100336.69;;;19.26;71.10
10060;BME280;5069;49.306;8.636;2023-07-20T05:12:42;100343.88;;;19.38;70.81
10060;BME280;5069;49.306;8.636;2023-07-20T05:15:44;100351.06;;;19.51;69.54
10060;BME280;5069;49.306;8.636;2023-07-20T05:18:49;100356.03;;;19.68;68.70
10060;BME280;5069;49.306;8.636;2023-07-20T05:21:50;100359.59;;;19.56;70.13
10060;BME280;5069;49.306;8.636;2023-07-20T05:24:52;100352.31;;;19.58;70.03
10060;BME280;5069;49.306;8.636;2023-07-20T05:27:53;100356.91;;;19.68;69.34
10060;BME280;5069;49.306;8.636;2023-07-20T05:30:56;100352.56;;;19.91;68.15
10060;BME280;5069;49.306;8.636;2023-07-20T05:34:00;100353.94;;;19.97;68.22
10060;BME280;5069;49.306;8.636;2023-07-20T05:37:02;100354.97;;;20.07;67.49
10060;BME280;5069;49.306;8.636;2023-07-20T05:40:05;100354.03;;;19.95;67.17
10060;BME280;5069;49.306;8.636;2023-07-20T05:43:07;100351.81;;;19.89;67.52
10060;BME280;5069;49.306;8.636;2023-07-20T05:46:08;100356.66;;;19.84;68.30
10060;BME280;5069;49.306;8.636;2023-07-20T05:49:11;100355.00;;;19.94;67.38
10060;BME280;5069;49.306;8.636;2023-07-20T05:52:13;100357.16;;;19.89;68.34
10060;BME280;5069;49.306;8.636;2023-07-20T05:55:14;100358.34;;;19.85;68.92
10060;BME280;5069;49.306;8.636;2023-07-20T05:58:16;100359.81;;;20.02;68.20
10060;BME280;5069;49.306;8.636;2023-07-20T06:01:17;100361.47;;;20.15;67.99
10060;BME280;5069;49.306;8.636;2023-07-20T06:04:20;100357.44;;;20.10;66.95
10060;BME280;5069;49.306;8.636;2023-07-20T06:07:21;100352.81;;;20.12;65.85
10060;BME280;5069;49.306;8.636;2023-07-20T06:10:23;100360.50;;;20.16;65.60
10060;BME280;5069;49.306;8.636;2023-07-20T06:13:24;100365.84;;;20.16;64.75
10060;BME280;5069;49.306;8.636;2023-07-20T06:16:26;100368.00;;;20.11;65.74
10060;BME280;5069;49.306;8.636;2023-07-20T06:19:28;100369.50;;;20.15;66.51
10060;BME280;5069;49.306;8.636;2023-07-20T06:22:29;100368.16;;;20.34;64.66
10060;BME280;5069;49.306;8.636;2023-07-20T06:25:31;100364.22;;;20.50;63.87
10060;BME280;5069;49.306;8.636;2023-07-20T06:28:32;100372.09;;;20.41;64.24
10060;BME280;5069;49.306;8.636;2023-07-20T06:31:35;100375.22;;;20.35;64.93
10060;BME280;5069;49.306;8.636;2023-07-20T06:34:37;100375.66;;;20.29;65.48
10060;BME280;5069;49.306;8.636;2023-07-20T06:37:39;100379.22;;;20.53;65.27
10060;BME280;5069;49.306;8.636;2023-07-20T06:40:40;100374.66;;;20.66;63.66
10060;BME280;5069;49.306;8.636;2023-07-20T06:43:47;100371.69;;;20.58;64.08
10060;BME280;5069;49.306;8.636;2023-07-20T06:46:50;100374.31;;;20.47;65.12
10060;BME280;5069;49.306;8.636;2023-07-20T06:49:51;100372.53;;;20.58;65.57
10060;BME280;5069;49.306;8.636;2023-07-20T06:52:53;100371.53;;;20.83;64.70
10060;BME280;5069;49.306;8.636;2023-07-20T06:55:54;100368.66;;;21.09;63.39
10060;BME280;5069;49.306;8.636;2023-07-20T06:58:58;100373.91;;;21.10;62.76
10060;BME280;5069;49.306;8.636;2023-07-20T07:01:59;100376.72;;;21.09;61.92
10060;BME280;5069;49.306;8.636;2023-07-20T07:05:01;100372.09;;;21.11;61.75
10060;BME280;5069;49.306;8.636;2023-07-20T07:08:19;100372.00;;;21.12;63.20
10060;BME280;5069;49.306;8.636;2023-07-20T07:11:21;100367.28;;;21.60;61.12
10060;BME280;5069;49.306;8.636;2023-07-20T07:14:23;100373.41;;;21.96;60.15
10060;BME280;5069;49.306;8.636;2023-07-20T07:17:28;100369.25;;;22.03;59.56
10060;BME280;5069;49.306;8.636;2023-07-20T07:20:30;100367.53;;;22.02;58.92
10060;BME280;5069;49.306;8.636;2023-07-20T07:23:32;100359.72;;;21.99;59.56
10060;BME280;5069;49.306;8.636;2023-07-20T07:26:33;100364.72;;;22.03;58.64
10060;BME280;5069;49.306;8.636;2023-07-20T07:29:35;100356.06;;;22.00;58.50
10060;BME280;5069;49.306;8.636;2023-07-20T07:32:36;100356.03;;;22.11;57.66
10060;BME280;5069;49.306;8.636;2023-07-20T07:35:38;100358.13;;;22.39;57.40
10060;BME280;5069;49.306;8.636;2023-07-20T07:38:40;100355.63;;;22.58;55.01
10060;BME280;5069;49.306;8.636;2023-07-20T07:42:01;100358.94;;;22.51;53.44
10060;BME280;5069;49.306;8.636;2023-07-20T07:45:03;100354.47;;;22.40;54.57
10060;BME280;5069;49.306;8.636;2023-07-20T07:48:05;100357.91;;;22.42;56.14
10060;BME280;5069;49.306;8.636;2023-07-20T07:51:07;100358.84;;;22.52;55.91
10060;BME280;5069;49.306;8.636;2023-07-20T07:54:10;100352.91;;;22.70;54.49
10060;BME280;5069;49.306;8.636;2023-07-20T07:57:11;100343.00;;;22.70;53.03
10060;BME280;5069;49.306;8.636;2023-07-20T08:00:14;100349.00;;;22.74;52.67
10060;BME280;5069;49.306;8.636;2023-07-20T08:03:16;100352.06;;;22.90;52.57
10060;BME280;5069;49.306;8.636;2023-07-20T08:06:17;100357.25;;;23.23;51.61
10060;BME280;5069;49.306;8.636;2023-07-20T08:09:19;100351.78;;;23.34;49.89
10060;BME280;5069;49.306;8.636;2023-07-20T08:12:20;100356.06;;;23.16;50.35
10060;BME280;5069;49.306;8.636;2023-07-20T08:15:22;100350.34;;;23.30;49.54
10060;BME280;5069;49.306;8.636;2023-07-20T08:18:24;100347.88;;;23.69;47.64
10060;BME280;5069;49.306;8.636;2023-07-20T08:21:26;100357.03;;;24.06;46.59
10060;BME280;5069;49.306;8.636;2023-07-20T08:24:27;100352.72;;;23.75;46.22
10060;BME280;5069;49.306;8.636;2023-07-20T08:27:29;100351.81;;;23.65;45.30
10060;BME280;5069;49.306;8.636;2023-07-20T08:30:44;100360.69;;;23.56;46.43
10060;BME280;5069;49.306;8.636;2023-07-20T08:33:45;100356.88;;;23.58;46.23
10060;BME280;5069;49.306;8.636;2023-07-20T08:36:47;100351.66;;;23.57;46.89
10060;BME280;5069;49.306;8.636;2023-07-20T08:39:48;100354.59;;;23.54;47.12
10060;BME280;5069;49.306;8.636;2023-07-20T08:42:50;100350.25;;;23.41;47.97
10060;BME280;5069;49.306;8.636;2023-07-20T08:45:54;100348.75;;;23.79;47.25
10060;BME280;5069;49.306;8.636;2023-07-20T08:48:56;100351.25;;;23.71;47.16
10060;BME280;5069;49.306;8.636;2023-07-20T08:51:59;100348.31;;;23.74;47.07
10060;BME280;5069;49.306;8.636;2023-07-20T08:55:00;100359.34;;;23.40;47.78
10060;BME280;5069;49.306;8.636;2023-07-20T08:58:08;100353.94;;;23.71;47.73
10060;BME280;5069;49.306;8.636;2023-07-20T09:01:10;100356.88;;;23.58;47.52
10060;BME280;5069;49.306;8.636;2023-07-20T09:04:12;100350.34;;;23.30;47.83
10060;BME280;5069;49.306;8.636;2023-07-20T09:07:15;100353.69;;;23.74;47.79
10060;BME280;5069;49.306;8.636;2023-07-20T09:10:17;100336.88;;;23.91;46.67
10060;BME280;5069;49.306;8.636;2023-07-20T09:13:18;100350.56;;;24.18;45.80
10060;BME280;5069;49.306;8.636;2023-07-20T09:16:22;100344.56;;;24.05;46.49
10060;BME280;5069;49.306;8.636;2023-07-20T09:19:24;100349.53;;;23.70;46.25
10060;BME280;5069;49.306;8.636;2023-07-20T09:22:29;100346.06;;;23.48;46.89
10060;BME280;5069;49.306;8.636;2023-07-20T09:25:31;100343.72;;;23.34;47.49
10060;BME280;5069;49.306;8.636;2023-07-20T09:28:41;100347.59;;;23.21;47.89
10060;BME280;5069;49.306;8.636;2023-07-20T09:31:58;100333.03;;;23.84;47.07
10060;BME280;5069;49.306;8.636;2023-07-20T09:35:02;100341.94;;;24.24;46.25
10060;BME280;5069;49.306;8.636;2023-07-20T09:38:06;100341.03;;;24.14;43.22
10060;BME280;5069;49.306;8.636;2023-07-20T09:41:14;100346.13;;;24.17;43.13
10060;BME280;5069;49.306;8.636;2023-07-20T09:44:22;100341.09;;;24.34;42.11
10060;BME280;5069;49.306;8.636;2023-07-20T09:47:27;100339.25;;;24.63;42.20
10060;BME280;5069;49.306;8.636;2023-07-20T09:50:30;100334.97;;;25.08;41.70
10060;BME280;5069;49.306;8.636;2023-07-20T09:53:32;100333.56;;;24.76;42.08
10060;BME280;5069;49.306;8.636;2023-07-20T09:56:34;100333.84;;;24.63;44.16
10060;BME280;5069;49.306;8.636;2023-07-20T09:59:36;100336.34;;;25.13;43.10
10060;BME280;5069;49.306;8.636;2023-07-20T10:02:44;100322.94;;;25.40;42.41
10060;BME280;5069;49.306;8.636;2023-07-20T10:05:58;100324.06;;;25.37;41.77
10060;BME280;5069;49.306;8.636;2023-07-20T10:09:02;100326.97;;;25.26;40.14
10060;BME280;5069;49.306;8.636;2023-07-20T10:12:10;100324.13;;;25.28;39.69
10060;BME280;5069;49.306;8.636;2023-07-20T10:15:24;100315.84;;;25.39;39.94
10060;BME280;5069;49.306;8.636;2023-07-20T10:18:31;100320.38;;;25.38;39.77
10060;BME280;5069;49.306;8.636;2023-07-20T10:21:47;100319.53;;;25.38;40.05
10060;BME280;5069;49.306;8.636;2023-07-20T10:24:57;100312.25;;;25.11;41.01
10060;BME280;5069;49.306;8.636;2023-07-20T10:28:01;100317.13;;;24.88;41.64
10060;BME280;5069;49.306;8.636;2023-07-20T10:31:03;100309.06;;;25.25;41.70
10060;BME280;5069;49.306;8.636;2023-07-20T10:34:05;100312.84;;;25.79;40.31
10060;BME280;5069;49.306;8.636;2023-07-20T10:37:07;100303.06;;;25.96;40.36
10060;BME280;5069;49.306;8.636;2023-07-20T10:43:29;100295.22;;;26.20;39.24
10060;BME280;5069;49.306;8.636;2023-07-20T10:46:49;100293.56;;;26.09;38.60
10060;BME280;5069;49.306;8.636;2023-07-20T10:50:01;100290.28;;;25.70;39.16
10060;BME280;5069;49.306;8.636;2023-07-20T10:53:20;100287.69;;;25.78;39.26
10060;BME280;5069;49.306;8.636;2023-07-20T10:56:23;100282.03;;;25.72;38.87
10060;BME280;5069;49.306;8.636;2023-07-20T11:02:41;100276.69;;;25.62;38.50
10060;BME280;5069;49.306;8.636;2023-07-20T11:05:43;100281.69;;;25.47;39.14
10060;BME280;5069;49.306;8.636;2023-07-20T11:08:44;100272.34;;;25.15;39.18
10060;BME280;5069;49.306;8.636;2023-07-20T11:11:49;100266.63;;;25.18;40.28
10060;BME280;5069;49.306;8.636;2023-07-20T11:14:57;100263.66;;;25.21;39.13
10060;BME280;5069;49.306;8.636;2023-07-20T11:18:11;100261.75;;;25.31;39.28
10060;BME280;5069;49.306;8.636;2023-07-20T11:21:14;100259.84;;;25.41;37.71
10060;BME280;5069;49.306;8.636;2023-07-20T11:24:17;100264.66;;;25.47;37.52
10060;BME280;5069;49.306;8.636;2023-07-20T11:27:19;100262.38;;;25.79;38.03
10060;BME280;5069;49.306;8.636;2023-07-20T11:30:23;100256.31;;;26.13;37.61
10060;BME280;5069;49.306;8.636;2023-07-20T11:33:26;100262.47;;;26.05;38.27
10060;BME280;5069;49.306;8.636;2023-07-20T11:36:27;100259.31;;;25.74;38.03
10060;BME280;5069;49.306;8.636;2023-07-20T11:39:32;100249.50;;;26.09;37.73
10060;BME280;5069;49.306;8.636;2023-07-20T11:42:33;100245.16;;;26.25;37.47
10060;BME280;5069;49.306;8.636;2023-07-20T11:45:38;100240.53;;;26.61;36.34
10060;BME280;5069;49.306;8.636;2023-07-20T11:48:40;100245.72;;;26.55;36.21
10060;BME280;5069;49.306;8.636;2023-07-20T11:51:42;100242.84;;;26.30;35.89
10060;BME280;5069;49.306;8.636;2023-07-20T11:54:44;100237.78;;;26.18;36.57
10060;BME280;5069;49.306;8.636;2023-07-20T11:58:06;100227.13;;;25.99;36.80
10060;BME280;5069;49.306;8.636;2023-07-20T12:01:08;100228.63;;;26.28;36.83
10060;BME280;5069;49.306;8.636;2023-07-20T12:04:10;100228.38;;;26.40;37.19
10060;BME280;5069;49.306;8.636;2023-07-20T12:07:11;100218.56;;;26.03;37.90
10060;BME280;5069;49.306;8.636;2023-07-20T12:10:13;100216.72;;;26.39;38.13
10060;BME280;5069;49.306;8.636;2023-07-20T12:13:14;100215.28;;;26.79;36.43
10060;BME280;5069;49.306;8.636;2023-07-20T12:16:16;100215.28;;;26.79;35.34
10060;BME280;5069;49.306;8.636;2023-07-20T12:19:19;100200.34;;;26.66;34.60
10060;BME280;5069;49.306;8.636;2023-07-20T12:22:20;100199.06;;;26.79;35.00
10060;BME280;5069;49.306;8.636;2023-07-20T12:25:22;100198.88;;;26.98;34.73
10060;BME280;5069;49.306;8.636;2023-07-20T12:28:23;100187.72;;;27.01;34.06
10060;BME280;5069;49.306;8.636;2023-07-20T12:31:26;100190.13;;;27.12;34.62
10060;BME280;5069;49.306;8.636;2023-07-20T12:34:28;100186.13;;;27.16;34.99
10060;BME280;5069;49.306;8.636;2023-07-20T12:37:29;100184.88;;;27.44;34.19
10060;BME280;5069;49.306;8.636;2023-07-20T12:40:31;100195.19;;;27.49;33.86
10060;BME280;5069;49.306;8.636;2023-07-20T12:43:32;100188.88;;;27.40;33.82
10060;BME280;5069;49.306;8.636;2023-07-20T12:46:34;100186.88;;;27.42;33.63
10060;BME280;5069;49.306;8.636;2023-07-20T12:49:38;100175.53;;;27.39;33.31
10060;BME280;5069;49.306;8.636;2023-07-20T12:52:40;100172.75;;;27.65;33.21
10060;BME280;5069;49.306;8.636;2023-07-20T12:55:42;100163.13;;;27.62;33.66
10060;BME280;5069;49.306;8.636;2023-07-20T12:58:44;100167.72;;;27.94;32.92
10060;BME280;5069;49.306;8.636;2023-07-20T13:01:45;100167.88;;;27.92;32.75
10060;BME280;5069;49.306;8.636;2023-07-20T13:04:47;100156.75;;;27.45;33.19
10060;BME280;5069;49.306;8.636;2023-07-20T13:07:48;100157.19;;;27.83;32.50
10060;BME280;5069;49.306;8.636;2023-07-20T13:10:53;100149.75;;;28.09;31.53
10060;BME280;5069;49.306;8.636;2023-07-20T13:13:54;100144.69;;;28.47;31.42
10060;BME280;5069;49.306;8.636;2023-07-20T13:16:56;100149.53;;;28.59;30.77
10060;BME280;5069;49.306;8.636;2023-07-20T13:19:57;100151.75;;;28.64;29.88
10060;BME280;5069;49.306;8.636;2023-07-20T13:22:59;100147.06;;;28.42;30.47
10060;BME280;5069;49.306;8.636;2023-07-20T13:26:00;100144.97;;;28.60;30.51
10060;BME280;5069;49.306;8.636;2023-07-20T13:29:02;100144.00;;;28.53;29.69
10060;BME280;5069;49.306;8.636;2023-07-20T13:32:04;100154.16;;;28.10;30.32
10060;BME280;5069;49.306;8.636;2023-07-20T13:35:08;100135.03;;;28.36;29.81
10060;BME280;5069;49.306;8.636;2023-07-20T13:38:09;100144.00;;;28.12;30.14
10060;BME280;5069;49.306;8.636;2023-07-20T13:41:12;100137.34;;;28.55;30.08
10060;BME280;5069;49.306;8.636;2023-07-20T13:44:13;100139.19;;;28.79;29.90
10060;BME280;5069;49.306;8.636;2023-07-20T13:47:17;100127.66;;;28.77;29.05
10060;BME280;5069;49.306;8.636;2023-07-20T13:50:23;100122.88;;;28.71;28.94
10060;BME280;5069;49.306;8.636;2023-07-20T13:53:28;100117.13;;;28.82;29.43
10060;BME280;5069;49.306;8.636;2023-07-20T13:56:33;100124.19;;;28.99;28.83
10060;BME280;5069;49.306;8.636;2023-07-20T13:59:34;100108.56;;;29.01;28.87
10060;BME280;5069;49.306;8.636;2023-07-20T14:02:36;100112.31;;;29.00;28.31
10060;BME280;5069;49.306;8.636;2023-07-20T14:05:41;100115.09;;;28.84;29.01
10060;BME280;5069;49.306;8.636;2023-07-20T14:08:47;100110.91;;;28.73;29.03
10060;BME280;5069;49.306;8.636;2023-07-20T14:11:50;100103.38;;;28.84;29.55
10060;BME280;5069;49.306;8.636;2023-07-20T14:14:54;100103.63;;;29.44;28.25
10060;BME280;5069;49.306;8.636;2023-07-20T14:17:57;100099.47;;;29.56;28.37
10060;BME280;5069;49.306;8.636;2023-07-20T14:20:59;100103.63;;;29.44;28.80
10060;BME280;5069;49.306;8.636;2023-07-20T14:24:01;100088.94;;;29.53;28.32
10060;BME280;5069;49.306;8.636;2023-07-20T14:27:03;100089.31;;;29.50;28.05
10060;BME280;5069;49.306;8.636;2023-07-20T14:30:05;100094.34;;;29.61;27.65
10060;BME280;5069;49.306;8.636;2023-07-20T14:33:07;100081.59;;;29.62;27.64
10060;BME280;5069;49.306;8.636;2023-07-20T14:36:08;100077.56;;;29.27;27.86
10060;BME280;5069;49.306;8.636;2023-07-20T14:39:11;100075.97;;;29.63;27.86
10060;BME280;5069;49.306;8.636;2023-07-20T14:42:13;100078.97;;;29.45;27.84
10060;BME280;5069;49.306;8.636;2023-07-20T14:45:15;100076.50;;;29.36;28.15
10060;BME280;5069;49.306;8.636;2023-07-20T14:48:16;100072.31;;;29.56;28.30
10060;BME280;5069;49.306;8.636;2023-07-20T14:51:18;100069.63;;;29.71;28.48
10060;BME280;5069;49.306;8.636;2023-07-20T14:54:19;100070.81;;;29.68;28.72
10060;BME280;5069;49.306;8.636;2023-07-20T14:57:21;100066.84;;;29.79;27.55
10060;BME280;5069;49.306;8.636;2023-07-20T15:00:24;100057.47;;;29.81;27.66
10060;BME280;5069;49.306;8.636;2023-07-20T15:03:26;100068.44;;;30.11;27.38
10060;BME280;5069;49.306;8.636;2023-07-20T15:06:28;100061.16;;;29.88;27.62
10060;BME280;5069;49.306;8.636;2023-07-20T15:09:31;100061.59;;;29.77;27.82
10060;BME280;5069;49.306;8.636;2023-07-20T15:12:33;100055.06;;;30.24;27.67
10060;BME280;5069;49.306;8.636;2023-07-20T15:15:34;100052.66;;;30.58;26.40
10060;BME280;5069;49.306;8.636;2023-07-20T15:18:36;100054.78;;;30.33;27.15
10060;BME280;5069;49.306;8.636;2023-07-20T15:21:48;100059.19;;;29.82;27.24
10060;BME280;5069;49.306;8.636;2023-07-20T15:24:50;100045.69;;;29.89;26.82
10060;BME280;5069;49.306;8.636;2023-07-20T15:27:52;100045.00;;;29.95;25.74
10060;BME280;5069;49.306;8.636;2023-07-20T15:30:59;100040.88;;;29.76;27.34
10060;BME280;5069;49.306;8.636;2023-07-20T15:34:01;100034.22;;;29.41;27.23
10060;BME280;5069;49.306;8.636;2023-07-20T15:37:03;100040.44;;;29.50;27.30
10060;BME280;5069;49.306;8.636;2023-07-20T15:40:05;100033.03;;;29.44;27.36
10060;BME280;5069;49.306;8.636;2023-07-20T15:43:06;100022.16;;;29.13;28.05
10060;BME280;5069;49.306;8.636;2023-07-20T15:46:43;100029.47;;;29.43;27.43
10060;BME280;5069;49.306;8.636;2023-07-20T15:49:45;100018.56;;;29.66;27.42
10060;BME280;5069;49.306;8.636;2023-07-20T15:52:47;100012.72;;;29.54;27.12
10060;BME280;5069;49.306;8.636;2023-07-20T15:55:53;100016.63;;;29.52;27.46
10060;BME280;5069;49.306;8.636;2023-07-20T15:58:57;100009.47;;;29.59;27.96
10060;BME280;5069;49.306;8.636;2023-07-20T16:01:59;100011.56;;;29.86;27.69
10060;BME280;5069;49.306;8.636;2023-07-20T16:05:01;100003.47;;;29.64;27.96
10060;BME280;5069;49.306;8.636;2023-07-20T16:08:05;99998.16;;;29.70;28.01
10060;BME280;5069;49.306;8.636;2023-07-20T16:11:07;100000.72;;;29.49;28.20
10060;BME280;5069;49.306;8.636;2023-07-20T16:14:09;99991.19;;;28.99;28.46
10060;BME280;5069;49.306;8.636;2023-07-20T16:17:12;99994.59;;;29.01;28.48
10060;BME280;5069;49.306;8.636;2023-07-20T16:20:14;99993.91;;;28.99;28.30
10060;BME280;5069;49.306;8.636;2023-07-20T16:23:15;99987.97;;;29.04;28.25
10060;BME280;5069;49.306;8.636;2023-07-20T16:26:17;99989.47;;;29.29;28.48